| Date | Time | Temp. (oF) | Dew Point (oF) | Rel. Hum. (%) | Press. (in.) | Wind Dir. | Wind Speed (mph) | Hourly Rainfall (in.) |
|
|---|---|---|---|---|---|---|---|---|---|
| 1 | 08/01 | 00:00 | 73 | 63 | 73 | 29.91 | S | 0 | 0.00 |
| 2 | 07/31 | 23:00 | 73 | 64 | 74 | 29.91 | SE | 2 | 0.00 |
| 3 | 07/31 | 22:00 | 73 | 64 | 75 | 29.90 | SE | 0 | 0.00 |
| 4 | 07/31 | 21:00 | 75 | 63 | 67 | 29.89 | ESE | 0 | 0.00 |
| 5 | 07/31 | 20:00 | 77 | 62 | 62 | 29.87 | SE | 2 | 0.00 |
| 6 | 07/31 | 19:00 | 80 | 63 | 58 | 29.86 | SE | 2 | 0.00 |
| 7 | 07/31 | 18:00 | 83 | 62 | 51 | 29.86 | SSE | 1 | 0.00 |
| 8 | 07/31 | 17:00 | 84 | 62 | 48 | 29.87 | SE | 1 | 0.00 |
| 9 | 07/31 | 16:00 | 83 | 58 | 44 | 29.89 | SSW | 3 | 0.00 |
| 10 | 07/31 | 15:00 | 82 | 63 | 54 | 29.90 | SSE | 3 | 0.00 |
| 11 | 07/31 | 14:00 | 82 | 60 | 49 | 29.91 | N | 2 | 0.00 |
| 12 | 07/31 | 13:00 | 80 | 60 | 52 | 29.93 | SW | 5 | 0.00 |
| 13 | 07/31 | 12:00 | 78 | 59 | 54 | 29.94 | ENE | 7 | 0.00 |
| 14 | 07/31 | 11:00 | 76 | 58 | 54 | 29.96 | NE | 5 | 0.00 |
| 15 | 07/31 | 10:00 | 74 | 59 | 61 | 29.97 | NE | 4 | 0.00 |
| 16 | 07/31 | 09:00 | 70 | 62 | 77 | 29.97 | SE | 0 | 0.00 |
| 17 | 07/31 | 08:00 | 63 | 62 | 99 | 29.98 | S | 0 | 0.00 |
| 18 | 07/31 | 07:00 | 60 | 59 | 99 | 29.97 | W | 0 | 0.00 |
| 19 | 07/31 | 06:00 | 60 | 59 | 97 | 29.96 | W | 0 | 0.00 |
| 20 | 07/31 | 05:00 | 61 | 60 | 97 | 29.95 | W | 0 | 0.00 |
| 21 | 07/31 | 04:00 | 62 | 60 | 95 | 29.95 | W | 0 | 0.00 |
| 22 | 07/31 | 03:00 | 63 | 61 | 94 | 29.95 | W | 0 | 0.00 |
| 23 | 07/31 | 02:00 | 64 | 61 | 93 | 29.94 | ENE | 0 | 0.00 |
| 24 | 07/31 | 01:00 | 64 | 61 | 92 | 29.94 | WSW | 0 | 0.00 |